Time;durP1;ratioP1;P1;durP2;ratioP2;P2;SDS_P1;SDS_P2;PMS_P1;PMS_P2;Temp;Humidity;BMP_temperature;BMP_pressure;BME280_temperature;BME280_humidity;BME280_pressure;Samples;Min_cycle;Max_cycle;Signal;HPM_P1;HPM_P2
2023/08/11 00:01:46;;;;;;;4.93;2.58;;;22.40;96.90;;;;;;5055566;28;20029;-70
2023/08/11 00:04:12;;;;;;;3.50;2.47;;;22.40;96.80;;;;;;5056106;28;20054;-73
2023/08/11 00:06:38;;;;;;;4.10;2.55;;;22.40;96.90;;;;;;5055731;28;20493;-71
2023/08/11 00:09:07;;;;;;;5.38;2.40;;;22.30;96.80;;;;;;5055966;28;20059;-70
2023/08/11 00:11:32;;;;;;;4.10;2.95;;;22.30;96.90;;;;;;5055840;28;20025;-72
2023/08/11 00:13:58;;;;;;;4.95;2.50;;;22.30;96.90;;;;;;5055910;28;20378;-70
2023/08/11 00:16:24;;;;;;;5.38;2.40;;;22.30;97.10;;;;;;5055322;28;20025;-70
2023/08/11 00:18:50;;;;;;;3.53;2.42;;;22.30;96.90;;;;;;5054395;28;20028;-72
2023/08/11 00:21:16;;;;;;;4.30;2.15;;;22.30;96.90;;;;;;5055753;28;20021;-68
2023/08/11 00:23:43;;;;;;;4.95;2.42;;;22.20;96.90;;;;;;5055945;28;20536;-74
2023/08/11 00:26:10;;;;;;;5.75;2.70;;;22.20;96.90;;;;;;5055344;28;20045;-69
2023/08/11 00:28:36;;;;;;;2.58;2.15;;;22.20;96.90;;;;;;5055713;28;20024;-70
2023/08/11 00:31:02;;;;;;;4.55;2.83;;;22.20;96.90;;;;;;5055468;28;20095;-71
2023/08/11 00:33:28;;;;;;;3.78;2.63;;;22.20;96.90;;;;;;5055751;28;20027;-68
2023/08/11 00:35:53;;;;;;;5.03;2.50;;;22.20;96.90;;;;;;5055487;28;20021;-68
2023/08/11 00:38:22;;;;;;;7.38;2.85;;;22.20;96.90;;;;;;5055905;28;20542;-67
2023/08/11 00:40:47;;;;;;;4.80;2.72;;;22.20;96.90;;;;;;5055425;28;20559;-72
2023/08/11 00:43:13;;;;;;;3.20;2.38;;;22.10;96.90;;;;;;5055608;28;20028;-68
2023/08/11 00:45:47;;;;;;;2.50;2.30;;;22.10;96.90;;;;;;5055301;28;20377;-69
2023/08/11 00:48:13;;;;;;;5.03;2.72;;;22.20;96.90;;;;;;5055299;28;20033;-68
2023/08/11 00:50:40;;;;;;;4.47;3.70;;;22.10;97.00;;;;;;5055431;28;20470;-67
2023/08/11 00:53:06;;;;;;;3.72;3.42;;;22.10;97.00;;;;;;5055168;28;20591;-69
2023/08/11 00:55:32;;;;;;;3.67;3.15;;;22.00;97.10;;;;;;5055285;28;20112;-67
2023/08/11 00:57:58;;;;;;;6.80;3.42;;;22.10;97.10;;;;;;5055261;28;20126;-67
2023/08/11 01:00:24;;;;;;;5.68;3.25;;;22.00;97.20;;;;;;5053724;28;20013;-68
2023/08/11 01:02:50;;;;;;;5.03;3.20;;;22.00;97.20;;;;;;5055023;28;20076;-67
2023/08/11 01:05:19;;;;;;;3.90;2.75;;;22.00;97.20;;;;;;5055297;28;20440;-67
2023/08/11 01:08:00;;;;;;;4.32;2.90;;;22.00;97.30;;;;;;5054826;28;20032;-68
2023/08/11 01:10:46;;;;;;;3.95;3.40;;;22.00;97.30;;;;;;5055280;28;20120;-68
2023/08/11 01:13:20;;;;;;;5.45;3.05;;;22.00;97.40;;;;;;5054574;28;20037;-69
2023/08/11 01:15:58;;;;;;;5.85;3.25;;;21.90;97.50;;;;;;5054937;28;20025;-68
2023/08/11 01:18:24;;;;;;;5.95;3.45;;;21.90;97.50;;;;;;5054759;28;20027;-69
2023/08/11 01:20:58;;;;;;;5.38;3.60;;;21.90;97.50;;;;;;5054900;28;20013;-68
2023/08/11 01:23:24;;;;;;;4.10;3.05;;;21.90;97.50;;;;;;5054707;28;20508;-68
2023/08/11 01:25:51;;;;;;;4.70;3.60;;;21.90;97.60;;;;;;5054851;28;20090;-68
2023/08/11 01:28:17;;;;;;;7.88;3.38;;;21.80;97.60;;;;;;5053177;28;20029;-68
2023/08/11 01:30:43;;;;;;;5.68;4.00;;;21.80;97.60;;;;;;5054863;28;20090;-69
2023/08/11 01:33:09;;;;;;;6.40;3.60;;;21.80;97.60;;;;;;5054579;28;20378;-69
2023/08/11 01:35:34;;;;;;;5.05;3.20;;;21.80;97.60;;;;;;5054744;28;20540;-68
2023/08/11 01:38:00;;;;;;;5.22;3.33;;;21.80;97.60;;;;;;5054506;28;20601;-69
2023/08/11 01:40:26;;;;;;;5.20;3.63;;;21.80;97.60;;;;;;5054377;28;20067;-75
2023/08/11 01:42:56;;;;;;;5.32;3.17;;;21.70;97.70;;;;;;5054065;28;20056;-68
2023/08/11 01:45:22;;;;;;;3.63;3.13;;;21.80;97.70;;;;;;5054401;28;20040;-70
2023/08/11 01:47:49;;;;;;;6.03;3.15;;;21.80;97.60;;;;;;5045752;28;20022;-68
2023/08/11 01:50:17;;;;;;;5.50;2.88;;;21.80;97.60;;;;;;5054175;28;20029;-68
2023/08/11 01:52:45;;;;;;;5.93;3.15;;;21.80;97.70;;;;;;5051348;28;20093;-68
2023/08/11 01:55:13;;;;;;;4.72;2.70;;;21.70;97.60;;;;;;5051876;28;20478;-68
2023/08/11 01:57:42;;;;;;;3.95;2.25;;;21.80;97.60;;;;;;5052346;28;20395;-68
2023/08/11 02:00:12;;;;;;;4.22;2.63;;;21.80;97.60;;;;;;5054393;28;20020;-68
2023/08/11 02:02:37;;;;;;;4.22;2.53;;;21.70;97.60;;;;;;5054111;28;20312;-70
2023/08/11 02:05:06;;;;;;;7.88;3.13;;;21.70;97.60;;;;;;5054012;28;20032;-70
2023/08/11 02:07:32;;;;;;;5.80;2.88;;;21.70;97.70;;;;;;5053921;28;20029;-72
2023/08/11 02:09:57;;;;;;;6.03;2.90;;;21.60;97.70;;;;;;5053923;28;20016;-69
2023/08/11 02:12:23;;;;;;;4.80;2.92;;;21.70;97.80;;;;;;5053757;28;20021;-69
2023/08/11 02:14:48;;;;;;;4.70;2.88;;;21.70;97.80;;;;;;5053819;28;20035;-74
2023/08/11 02:17:14;;;;;;;4.82;2.75;;;21.60;97.80;;;;;;5053645;28;20044;-69
2023/08/11 02:19:40;;;;;;;7.18;2.97;;;21.60;97.90;;;;;;5051805;28;20430;-69
2023/08/11 02:22:05;;;;;;;6.38;2.85;;;21.60;97.90;;;;;;5053480;28;20025;-71
2023/08/11 02:24:31;;;;;;;5.20;3.58;;;21.60;97.90;;;;;;5053639;28;20465;-72
2023/08/11 02:26:56;;;;;;;3.35;2.83;;;21.60;98.00;;;;;;5053214;28;20033;-73
2023/08/11 02:29:22;;;;;;;4.82;2.80;;;21.60;98.00;;;;;;5053563;28;20166;-69
2023/08/11 02:31:48;;;;;;;4.82;3.17;;;21.50;98.10;;;;;;5053481;28;20421;-68
2023/08/11 02:34:15;;;;;;;4.45;3.13;;;21.50;98.10;;;;;;5053452;28;20495;-69
2023/08/11 02:36:40;;;;;;;5.28;3.13;;;21.50;98.20;;;;;;5053448;28;20154;-68
2023/08/11 02:39:06;;;;;;;6.43;2.95;;;21.50;98.20;;;;;;5053219;28;20107;-69
2023/08/11 02:41:32;;;;;;;5.13;3.30;;;21.50;98.10;;;;;;5053186;28;20167;-72
2023/08/11 02:43:58;;;;;;;6.22;3.28;;;21.50;98.20;;;;;;5053105;28;20032;-75
2023/08/11 02:46:23;;;;;;;6.18;3.78;;;21.50;98.30;;;;;;5053399;28;20021;-69
2023/08/11 02:48:49;;;;;;;5.00;3.75;;;21.50;98.30;;;;;;5052964;28;20033;-69
2023/08/11 02:51:15;;;;;;;4.63;3.45;;;21.40;98.40;;;;;;5052292;28;20024;-74
2023/08/11 02:53:40;;;;;;;5.43;3.28;;;21.40;98.40;;;;;;5052820;28;20025;-69
2023/08/11 02:56:09;;;;;;;6.22;3.75;;;21.40;98.40;;;;;;5051441;28;20047;-68
2023/08/11 02:58:36;;;;;;;5.57;3.83;;;21.30;98.40;;;;;;5052845;28;20048;-71
2023/08/11 03:01:03;;;;;;;4.40;3.88;;;21.30;98.40;;;;;;5052618;28;20033;-72
2023/08/11 03:03:29;;;;;;;6.22;4.20;;;21.40;98.50;;;;;;5053156;28;20359;-75
2023/08/11 03:05:55;;;;;;;4.55;4.03;;;21.30;98.50;;;;;;5052497;28;20028;-73
2023/08/11 03:08:21;;;;;;;7.57;4.60;;;21.30;98.60;;;;;;5042701;28;20022;-69
2023/08/11 03:10:47;;;;;;;5.70;3.70;;;21.30;98.60;;;;;;5032776;28;20053;-73
2023/08/11 03:13:12;;;;;;;5.82;3.85;;;21.20;98.60;;;;;;5033285;28;20064;-69
2023/08/11 03:15:38;;;;;;;7.07;3.72;;;21.30;98.60;;;;;;5033113;28;20029;-74
2023/08/11 03:18:04;;;;;;;4.88;3.90;;;21.30;98.70;;;;;;5031721;28;20554;-74
2023/08/11 03:20:30;;;;;;;4.53;3.67;;;21.30;98.70;;;;;;5050438;28;20079;-69
2023/08/11 03:22:55;;;;;;;6.97;4.10;;;21.20;98.70;;;;;;5052393;28;20497;-68
2023/08/11 03:25:21;;;;;;;5.05;4.22;;;21.20;98.70;;;;;;5052610;28;20017;-70
2023/08/11 03:27:46;;;;;;;5.20;4.13;;;21.20;98.70;;;;;;5052845;28;20037;-72
2023/08/11 03:30:12;;;;;;;4.68;3.65;;;21.20;98.70;;;;;;5052348;28;20030;-70
2023/08/11 03:32:39;;;;;;;6.63;3.65;;;21.20;98.80;;;;;;5051281;28;20032;-71
2023/08/11 03:35:06;;;;;;;5.78;4.03;;;21.20;98.80;;;;;;5036234;28;20048;-68
2023/08/11 03:37:35;;;;;;;6.30;3.95;;;21.10;98.80;;;;;;5037029;28;20064;-68
2023/08/11 03:40:00;;;;;;;7.55;4.05;;;21.10;98.80;;;;;;5036432;28;20029;-70
2023/08/11 03:42:26;;;;;;;6.20;3.97;;;21.20;98.80;;;;;;5036807;28;20026;-69
2023/08/11 03:44:53;;;;;;;8.90;4.22;;;21.10;98.80;;;;;;5036576;28;20478;-72
2023/08/11 03:47:19;;;;;;;6.55;3.90;;;21.10;98.80;;;;;;5036711;28;20481;-70
2023/08/11 03:49:48;;;;;;;7.07;3.80;;;21.10;98.90;;;;;;5036554;28;20394;-70
2023/08/11 03:52:14;;;;;;;6.22;4.00;;;21.10;98.90;;;;;;5036744;28;20017;-70
2023/08/11 03:54:39;;;;;;;5.68;3.83;;;21.00;99.00;;;;;;5036244;28;20080;-68
2023/08/11 03:57:06;;;;;;;6.28;4.18;;;21.10;99.00;;;;;;5036406;28;20033;-68
2023/08/11 03:59:32;;;;;;;4.90;3.92;;;21.00;99.10;;;;;;5036621;28;20026;-74
2023/08/11 04:01:58;;;;;;;3.65;3.10;;;21.10;99.00;;;;;;5036233;28;20515;-71
2023/08/11 04:04:23;;;;;;;4.90;3.40;;;21.00;99.00;;;;;;5036659;28;20029;-72
2023/08/11 04:06:51;;;;;;;6.18;3.40;;;21.10;99.10;;;;;;5036318;28;20483;-73
2023/08/11 04:09:17;;;;;;;8.95;4.05;;;21.00;99.10;;;;;;5035927;28;20021;-74
2023/08/11 04:11:43;;;;;;;6.22;4.38;;;20.90;99.10;;;;;;5036260;28;20451;-70
2023/08/11 04:14:09;;;;;;;4.38;3.40;;;20.90;99.10;;;;;;5036169;28;20486;-69
2023/08/11 04:16:34;;;;;;;6.25;3.72;;;21.00;99.10;;;;;;5036050;28;20029;-72
2023/08/11 04:19:00;;;;;;;5.80;3.78;;;20.90;99.50;;;;;;5035990;28;20029;-71
2023/08/11 04:21:25;;;;;;;4.10;3.58;;;21.00;99.20;;;;;;5036155;28;20022;-74
2023/08/11 04:23:51;;;;;;;5.88;3.42;;;20.90;99.20;;;;;;5035719;28;20027;-74
2023/08/11 04:26:17;;;;;;;7.07;3.33;;;20.90;99.20;;;;;;5034780;28;20025;-69
2023/08/11 04:28:43;;;;;;;4.82;3.33;;;20.90;99.30;;;;;;5034651;28;20037;-68
2023/08/11 04:31:09;;;;;;;5.10;3.35;;;20.90;99.30;;;;;;5035634;28;20028;-72
2023/08/11 04:33:35;;;;;;;5.03;3.50;;;20.90;99.40;;;;;;5035922;28;20489;-71
2023/08/11 04:36:02;;;;;;;6.35;3.33;;;20.90;99.40;;;;;;5035679;28;20021;-72
2023/08/11 04:38:30;;;;;;;6.25;3.13;;;20.80;99.40;;;;;;5035616;28;20025;-69
2023/08/11 04:40:59;;;;;;;7.35;3.65;;;20.90;99.50;;;;;;5034222;28;20386;-70
2023/08/11 04:43:24;;;;;;;6.10;2.92;;;21.00;99.90;;;;;;5033733;28;20461;-72
2023/08/11 04:45:50;;;;;;;5.28;3.03;;;21.10;99.70;;;;;;5035690;28;20018;-69
2023/08/11 04:48:16;;;;;;;5.75;3.70;;;21.20;99.70;;;;;;5035306;28;20449;-69
2023/08/11 04:50:42;;;;;;;5.25;3.60;;;21.20;99.50;;;;;;5035422;28;20028;-69
2023/08/11 04:53:08;;;;;;;7.03;2.90;;;21.20;99.40;;;;;;5035275;28;20036;-72
2023/08/11 04:55:34;;;;;;;4.90;3.10;;;21.30;99.40;;;;;;5035582;28;20028;-68
2023/08/11 04:58:00;;;;;;;4.45;3.35;;;21.30;99.30;;;;;;5035145;28;20097;-68
2023/08/11 05:00:26;;;;;;;5.90;3.53;;;21.30;99.40;;;;;;5037713;28;20025;-70
2023/08/11 05:02:52;;;;;;;6.00;3.00;;;21.30;99.40;;;;;;5055087;28;20028;-71
2023/08/11 05:05:19;;;;;;;4.07;2.67;;;21.30;99.30;;;;;;5055206;28;20017;-70
2023/08/11 05:07:45;;;;;;;3.05;2.55;;;21.30;99.30;;;;;;5054621;28;20112;-72
2023/08/11 05:10:11;;;;;;;5.30;3.30;;;21.30;99.30;;;;;;5055102;28;20025;-70
2023/08/11 05:12:37;;;;;;;3.95;2.88;;;21.30;99.30;;;;;;5054994;28;20588;-70
2023/08/11 05:15:03;;;;;;;5.70;2.78;;;21.30;99.30;;;;;;5054931;28;20025;-70
2023/08/11 05:17:31;;;;;;;3.65;2.20;;;21.30;99.20;;;;;;5054965;28;20037;-69
2023/08/11 05:19:57;;;;;;;10.38;3.38;;;21.30;99.50;;;;;;5054532;28;20114;-68
2023/08/11 05:22:23;;;;;;;5.72;2.83;;;21.30;99.20;;;;;;5054863;28;20065;-68
2023/08/11 05:24:49;;;;;;;9.77;4.13;;;21.30;99.30;;;;;;5054897;28;20025;-71
2023/08/11 05:27:15;;;;;;;9.90;3.30;;;21.30;99.20;;;;;;5054464;28;20040;-72
2023/08/11 05:29:47;;;;;;;6.82;3.10;;;21.30;99.10;;;;;;5054817;28;20421;-71
2023/08/11 05:32:12;;;;;;;5.53;3.60;;;21.30;99.10;;;;;;5054490;28;20133;-74
2023/08/11 05:34:38;;;;;;;4.53;3.00;;;21.30;99.20;;;;;;5054428;28;20074;-72
2023/08/11 05:37:05;;;;;;;8.93;3.30;;;21.30;99.10;;;;;;5054300;28;20033;-70
2023/08/11 05:39:32;;;;;;;6.20;3.50;;;21.30;99.20;;;;;;5054428;28;20450;-69
2023/08/11 05:41:57;;;;;;;4.30;3.25;;;21.30;99.30;;;;;;5054548;28;20017;-68
2023/08/11 05:44:23;;;;;;;4.00;2.45;;;21.30;99.20;;;;;;5054575;28;20074;-68
2023/08/11 05:46:49;;;;;;;4.20;2.38;;;21.30;99.50;;;;;;5054570;28;20020;-70
2023/08/11 05:49:14;;;;;;;10.60;3.65;;;21.30;99.50;;;;;;5053706;28;20025;-69
2023/08/11 05:51:40;;;;;;;4.25;3.10;;;21.30;99.20;;;;;;5054401;28;20033;-74
2023/08/11 05:54:05;;;;;;;4.45;2.58;;;21.30;99.30;;;;;;5053946;28;20013;-69
2023/08/11 05:56:31;;;;;;;6.25;3.15;;;21.30;99.40;;;;;;5053153;28;20060;-68
2023/08/11 05:58:57;;;;;;;4.43;2.00;;;21.30;99.20;;;;;;5053923;28;20056;-68
2023/08/11 06:01:22;;;;;;;3.30;2.10;;;21.30;99.40;;;;;;5054359;28;20021;-73
2023/08/11 06:03:48;;;;;;;3.45;2.40;;;21.30;99.50;;;;;;5053914;28;20484;-71
2023/08/11 06:06:14;;;;;;;2.50;1.90;;;21.30;99.50;;;;;;5054101;28;20036;-68
2023/08/11 06:08:39;;;;;;;2.30;1.55;;;21.40;99.50;;;;;;5053820;28;20072;-68
2023/08/11 06:11:05;;;;;;;7.65;2.72;;;21.30;99.50;;;;;;5053978;28;20095;-70
2023/08/11 06:13:31;;;;;;;6.97;2.67;;;21.40;99.50;;;;;;5053824;28;20063;-70
2023/08/11 06:15:56;;;;;;;6.10;2.47;;;21.30;99.50;;;;;;5054237;28;20437;-68
2023/08/11 06:18:22;;;;;;;4.32;2.38;;;21.40;99.60;;;;;;5049308;28;20036;-68
2023/08/11 06:20:48;;;;;;;4.25;2.40;;;21.30;99.50;;;;;;5051702;28;20086;-70
2023/08/11 06:23:13;;;;;;;3.42;2.00;;;21.40;99.50;;;;;;5053660;28;20029;-69
2023/08/11 06:25:39;;;;;;;3.20;2.28;;;21.40;99.40;;;;;;5053031;28;20048;-69
2023/08/11 06:28:05;;;;;;;5.50;2.85;;;21.40;99.40;;;;;;5064973;28;20104;-69
2023/08/11 06:30:31;;;;;;;5.22;2.38;;;21.30;99.10;;;;;;5059002;28;20124;-73
2023/08/11 06:32:57;;;;;;;2.65;1.85;;;21.40;99.20;;;;;;5049401;28;20119;-70
2023/08/11 06:35:23;;;;;;;4.38;2.65;;;21.40;99.20;;;;;;5052449;28;20079;-69
2023/08/11 06:37:49;;;;;;;16.35;2.80;;;21.40;99.20;;;;;;5048958;28;20557;-67
2023/08/11 06:40:14;;;;;;;4.18;2.47;;;21.40;99.30;;;;;;5053992;28;20070;-71
2023/08/11 06:42:40;;;;;;;4.07;2.30;;;21.40;99.30;;;;;;5059194;28;20017;-67
2023/08/11 06:45:06;;;;;;;4.15;2.10;;;21.50;99.40;;;;;;5052708;28;20393;-68
2023/08/11 06:47:34;;;;;;;4.25;2.00;;;21.50;99.20;;;;;;5071575;28;20028;-69
2023/08/11 06:50:00;;;;;;;6.32;2.95;;;21.50;99.30;;;;;;5073004;28;20024;-69
2023/08/11 06:52:26;;;;;;;4.22;2.70;;;21.50;99.30;;;;;;5059282;28;20100;-71
2023/08/11 06:54:52;;;;;;;4.97;2.33;;;21.50;99.30;;;;;;5055585;28;20470;-69
2023/08/11 06:57:20;;;;;;;6.05;2.15;;;21.50;99.40;;;;;;5043714;28;20130;-69
2023/08/11 06:59:47;;;;;;;4.00;2.45;;;21.60;99.40;;;;;;5052166;28;20497;-68
2023/08/11 07:02:12;;;;;;;3.97;1.90;;;21.60;99.40;;;;;;5052531;28;20042;-68
2023/08/11 07:04:39;;;;;;;6.65;2.55;;;21.60;99.40;;;;;;5050593;28;20470;-69
2023/08/11 07:07:05;;;;;;;4.85;2.20;;;21.60;99.40;;;;;;5049768;28;20032;-67
2023/08/11 07:09:32;;;;;;;4.18;2.10;;;21.60;99.40;;;;;;5049700;28;20464;-68
2023/08/11 07:11:58;;;;;;;3.95;2.65;;;21.70;99.40;;;;;;5049632;28;20110;-67
2023/08/11 07:14:23;;;;;;;4.28;2.10;;;21.70;99.50;;;;;;5062597;28;20063;-68
2023/08/11 07:16:49;;;;;;;6.75;2.25;;;21.70;99.40;;;;;;5050912;28;20037;-68
2023/08/11 07:19:15;;;;;;;5.65;2.15;;;21.70;99.40;;;;;;5057559;28;20023;-68
2023/08/11 07:21:40;;;;;;;4.75;2.17;;;21.70;99.40;;;;;;5063193;28;20037;-67
2023/08/11 07:24:06;;;;;;;4.82;2.03;;;21.70;99.40;;;;;;5050780;28;20024;-68
2023/08/11 07:26:32;;;;;;;5.03;2.20;;;21.80;99.40;;;;;;5052770;28;20470;-68
2023/08/11 07:28:57;;;;;;;5.22;2.38;;;21.80;99.40;;;;;;5052543;28;20036;-67
2023/08/11 07:31:23;;;;;;;6.22;1.90;;;21.80;99.30;;;;;;5050059;28;20516;-68
2023/08/11 07:33:49;;;;;;;3.05;2.20;;;21.80;99.40;;;;;;5051649;28;20099;-68
2023/08/11 07:36:14;;;;;;;5.72;2.20;;;21.80;99.40;;;;;;5051630;28;20095;-68
2023/08/11 07:38:40;;;;;;;6.72;2.42;;;21.90;99.40;;;;;;5051572;28;20056;-68
2023/08/11 07:41:06;;;;;;;8.07;2.40;;;21.90;99.40;;;;;;5044366;28;20029;-69
2023/08/11 07:43:31;;;;;;;5.63;2.03;;;21.90;99.40;;;;;;5051790;28;20474;-68
2023/08/11 07:45:57;;;;;;;5.30;2.40;;;21.90;99.40;;;;;;5060591;28;20021;-67
2023/08/11 07:48:23;;;;;;;5.22;1.90;;;22.00;99.40;;;;;;5060411;28;20040;-68
2023/08/11 07:50:48;;;;;;;5.30;2.35;;;22.00;99.40;;;;;;5066611;28;20017;-72
2023/08/11 07:53:14;;;;;;;4.07;2.00;;;22.00;99.40;;;;;;5060533;28;20077;-67
2023/08/11 07:55:40;;;;;;;2.45;1.80;;;22.10;99.40;;;;;;5070193;28;20048;-68
2023/08/11 07:58:06;;;;;;;5.75;2.40;;;22.10;99.70;;;;;;5071495;28;20040;-70
2023/08/11 08:00:32;;;;;;;3.40;1.80;;;22.10;99.30;;;;;;5057767;28;20025;-72
2023/08/11 08:02:58;;;;;;;3.10;2.05;;;22.20;99.40;;;;;;5051111;28;20056;-68
2023/08/11 08:05:24;;;;;;;3.72;2.20;;;22.20;99.40;;;;;;5059093;28;20021;-72
2023/08/11 08:07:50;;;;;;;4.45;2.30;;;22.20;99.40;;;;;;5048979;28;20029;-68
2023/08/11 08:10:15;;;;;;;4.47;2.10;;;22.30;99.40;;;;;;5048914;28;20029;-67
2023/08/11 08:12:45;;;;;;;5.28;2.03;;;22.30;99.40;;;;;;5051405;28;20096;-70
2023/08/11 08:15:12;;;;;;;3.78;2.28;;;22.30;99.30;;;;;;5052557;28;20083;-69
2023/08/11 08:17:39;;;;;;;4.88;2.05;;;22.30;99.40;;;;;;5053284;28;20037;-69
2023/08/11 08:20:09;;;;;;;2.63;1.85;;;22.30;99.40;;;;;;5048085;28;20394;-71
2023/08/11 08:22:38;;;;;;;3.42;2.00;;;22.40;99.40;;;;;;5055504;28;20029;-73
2023/08/11 08:25:07;;;;;;;4.45;2.38;;;22.40;99.40;;;;;;5055065;28;20029;-67
2023/08/11 08:27:40;;;;;;;3.75;2.00;;;22.40;99.40;;;;;;5053229;28;20072;-67
2023/08/11 08:30:07;;;;;;;3.03;1.85;;;22.40;99.50;;;;;;5053487;28;20070;-69
2023/08/11 08:32:33;;;;;;;3.53;1.92;;;22.50;99.50;;;;;;5043886;28;20067;-67
2023/08/11 08:34:59;;;;;;;3.40;2.08;;;22.50;99.50;;;;;;5066236;28;20072;-74
2023/08/11 08:37:25;;;;;;;3.83;2.10;;;22.50;99.50;;;;;;5056815;28;20553;-69
2023/08/11 08:39:52;;;;;;;3.33;2.03;;;22.60;99.50;;;;;;5055595;28;20175;-72
2023/08/11 08:42:19;;;;;;;5.13;2.03;;;22.60;99.50;;;;;;5054029;28;20385;-69
2023/08/11 08:44:48;;;;;;;3.70;2.10;;;22.70;99.50;;;;;;5059217;28;20047;-68
2023/08/11 08:47:18;;;;;;;3.85;2.13;;;22.70;99.50;;;;;;5040595;28;20547;-68
2023/08/11 08:49:45;;;;;;;3.70;2.28;;;22.70;99.40;;;;;;5052320;28;20029;-68
2023/08/11 08:52:11;;;;;;;4.05;1.98;;;22.70;99.40;;;;;;5052838;28;20079;-70
2023/08/11 08:54:37;;;;;;;4.65;2.00;;;22.80;99.40;;;;;;5053952;28;20025;-67
2023/08/11 08:57:06;;;;;;;2.75;1.95;;;22.80;99.50;;;;;;5066145;28;20050;-67
2023/08/11 08:59:32;;;;;;;3.17;2.15;;;22.80;99.50;;;;;;5075295;28;20029;-67
2023/08/11 09:01:58;;;;;;;4.85;2.15;;;22.80;99.50;;;;;;5057589;28;20027;-68
2023/08/11 09:04:25;;;;;;;2.60;1.90;;;22.90;99.60;;;;;;5060748;28;20061;-68
2023/08/11 09:06:55;;;;;;;2.50;1.80;;;22.90;99.60;;;;;;5052582;28;20013;-69
2023/08/11 09:09:21;;;;;;;3.05;1.85;;;22.90;99.60;;;;;;5050809;28;20031;-68
2023/08/11 09:11:48;;;;;;;3.85;1.70;;;22.90;99.60;;;;;;5050941;28;20041;-67
2023/08/11 09:14:14;;;;;;;4.55;2.38;;;23.00;99.70;;;;;;5051966;28;20039;-67
2023/08/11 09:16:40;;;;;;;3.28;2.00;;;23.00;99.70;;;;;;5052980;28;20043;-69
2023/08/11 09:19:09;;;;;;;4.95;2.10;;;23.00;99.80;;;;;;5054342;28;20024;-69
2023/08/11 09:21:35;;;;;;;4.75;2.40;;;23.00;99.90;;;;;;5054210;28;20494;-67
2023/08/11 09:24:01;;;;;;;4.80;2.10;;;23.10;99.90;;;;;;5048437;28;20025;-71
2023/08/11 09:26:27;;;;;;;4.28;2.60;;;23.10;99.90;;;;;;5054552;28;20103;-68
2023/08/11 09:28:54;;;;;;;4.10;2.28;;;23.10;99.90;;;;;;5049384;28;20033;-65
2023/08/11 09:31:22;;;;;;;4.03;2.28;;;23.10;99.90;;;;;;5040348;28;20116;-71
2023/08/11 09:33:48;;;;;;;5.47;2.70;;;23.20;99.90;;;;;;5050797;28;20545;-72
2023/08/11 09:36:14;;;;;;;7.07;3.30;;;23.20;99.90;;;;;;5051705;28;20027;-69
2023/08/11 09:38:41;;;;;;;10.93;4.82;;;23.30;99.90;;;;;;5051882;28;20029;-68
2023/08/11 09:41:08;;;;;;;10.52;5.05;;;23.30;99.90;;;;;;5049236;28;20048;-72
2023/08/11 09:43:35;;;;;;;11.15;4.00;;;23.30;99.90;;;;;;5050587;28;20040;-68
2023/08/11 09:46:00;;;;;;;9.60;3.58;;;23.30;99.90;;;;;;5052098;28;20018;-68
2023/08/11 09:48:26;;;;;;;12.05;4.60;;;23.40;99.90;;;;;;5049159;28;20037;-69
2023/08/11 09:50:53;;;;;;;7.45;3.60;;;23.40;99.90;;;;;;5053672;28;20150;-69
2023/08/11 09:53:19;;;;;;;8.50;4.18;;;23.40;99.90;;;;;;5053608;28;20051;-71
2023/08/11 09:55:48;;;;;;;8.80;3.92;;;23.40;99.90;;;;;;5041883;28;20025;-69
2023/08/11 09:58:15;;;;;;;8.48;4.72;;;23.50;99.90;;;;;;5044190;28;20091;-69
2023/08/11 10:00:41;;;;;;;9.23;4.05;;;23.50;99.90;;;;;;5048269;28;20079;-69
2023/08/11 10:03:15;;;;;;;11.75;3.90;;;23.50;99.90;;;;;;5054168;28;20469;-72
2023/08/11 10:05:43;;;;;;;8.65;3.63;;;23.60;99.90;;;;;;5054362;28;20055;-69
2023/08/11 10:08:18;;;;;;;9.70;3.65;;;23.60;99.90;;;;;;5052194;28;20021;-69
2023/08/11 10:10:44;;;;;;;7.40;2.75;;;23.60;99.90;;;;;;5050374;28;20021;-69
2023/08/11 10:13:21;;;;;;;8.70;3.15;;;23.60;99.90;;;;;;5049636;28;20549;-69
2023/08/11 10:15:48;;;;;;;7.32;3.40;;;23.60;99.90;;;;;;5051710;28;20029;-70
2023/08/11 10:18:24;;;;;;;9.10;3.03;;;23.60;99.90;;;;;;5038251;28;20098;-69
2023/08/11 10:20:51;;;;;;;4.80;2.75;;;23.60;99.90;;;;;;5063671;28;20103;-68
2023/08/11 10:23:20;;;;;;;5.57;2.97;;;23.70;99.90;;;;;;5060089;28;20399;-68
2023/08/11 10:25:47;;;;;;;4.55;2.88;;;23.70;99.90;;;;;;5057789;28;20032;-69
2023/08/11 10:28:14;;;;;;;6.90;2.83;;;23.70;99.90;;;;;;5052338;28;20025;-66
2023/08/11 10:30:40;;;;;;;4.22;2.78;;;23.70;99.90;;;;;;5053284;28;20489;-67
2023/08/11 10:33:09;;;;;;;9.27;2.67;;;23.80;99.90;;;;;;5052870;28;20033;-68
2023/08/11 10:35:49;;;;;;;5.75;2.75;;;23.80;99.90;;;;;;5056725;28;20017;-67
2023/08/11 10:38:33;;;;;;;3.28;2.45;;;23.80;99.90;;;;;;5048494;28;20123;-67
2023/08/11 10:41:07;;;;;;;4.22;2.25;;;23.80;99.90;;;;;;5041477;28;20036;-68
2023/08/11 10:43:38;;;;;;;8.23;3.08;;;23.90;99.90;;;;;;5055526;28;20094;-67
2023/08/11 10:46:30;;;;;;;2.65;2.28;;;23.90;99.90;;;;;;5051653;28;20025;-68
2023/08/11 10:49:04;;;;;;;5.00;2.72;;;23.90;99.90;;;;;;5049173;28;20111;-73
2023/08/11 10:51:36;;;;;;;4.43;2.40;;;23.90;99.90;;;;;;5050327;28;20108;-67
2023/08/11 10:54:13;;;;;;;6.05;2.47;;;24.00;99.90;;;;;;5052173;28;20548;-66
2023/08/11 10:56:39;;;;;;;5.68;2.28;;;24.00;99.90;;;;;;5051495;28;20111;-68
2023/08/11 10:59:12;;;;;;;6.55;2.65;;;24.00;99.90;;;;;;5065238;28;20612;-71
2023/08/11 11:01:39;;;;;;;2.83;2.30;;;24.00;99.90;;;;;;5058496;28;20065;-72
2023/08/11 11:04:06;;;;;;;2.83;2.35;;;24.00;99.90;;;;;;5050470;28;20462;-67
2023/08/11 11:06:33;;;;;;;3.95;2.45;;;24.00;99.90;;;;;;5048098;28;20363;-68
2023/08/11 11:08:59;;;;;;;4.75;2.40;;;24.10;99.90;;;;;;5052398;28;20094;-67
2023/08/11 11:11:25;;;;;;;4.60;2.28;;;24.10;99.90;;;;;;5050481;28;20477;-68
2023/08/11 11:13:51;;;;;;;3.78;2.22;;;24.10;99.90;;;;;;5060475;28;20493;-68
2023/08/11 11:16:18;;;;;;;3.22;2.30;;;24.10;99.90;;;;;;5048490;28;20533;-68
2023/08/11 11:18:47;;;;;;;4.00;2.40;;;24.20;99.90;;;;;;5046169;28;20040;-68
2023/08/11 11:21:13;;;;;;;3.22;2.38;;;24.20;99.90;;;;;;5053555;28;20025;-68
2023/08/11 11:23:49;;;;;;;1.92;1.75;;;24.20;99.90;;;;;;5050211;28;20417;-67
2023/08/11 11:26:30;;;;;;;3.67;2.35;;;24.20;99.90;;;;;;5050236;28;20120;-69
2023/08/11 11:28:58;;;;;;;7.35;2.38;;;24.30;99.90;;;;;;5047227;28;20029;-67
2023/08/11 11:31:27;;;;;;;6.45;2.58;;;24.30;99.90;;;;;;5050978;28;20025;-68
2023/08/11 11:33:52;;;;;;;3.15;2.30;;;24.30;99.90;;;;;;5050776;28;20116;-68
2023/08/11 11:36:19;;;;;;;5.20;2.00;;;24.30;99.90;;;;;;5046680;28;20092;-69
2023/08/11 11:38:45;;;;;;;5.32;2.90;;;24.30;99.90;;;;;;5048625;28;20036;-68
2023/08/11 11:41:12;;;;;;;7.15;2.75;;;24.30;99.90;;;;;;5046924;28;20032;-69
2023/08/11 11:43:42;;;;;;;7.70;2.53;;;24.30;99.90;;;;;;5044623;28;20036;-69
2023/08/11 11:46:17;;;;;;;5.78;2.60;;;24.40;99.90;;;;;;5047522;28;20025;-68
2023/08/11 11:48:50;;;;;;;6.47;2.95;;;24.40;99.90;;;;;;5043472;28;20090;-68
2023/08/11 11:51:18;;;;;;;6.78;2.60;;;24.40;99.90;;;;;;5034161;28;20028;-68
2023/08/11 11:53:44;;;;;;;5.60;2.47;;;24.40;99.90;;;;;;5050946;28;20028;-69
2023/08/11 11:56:14;;;;;;;6.65;3.45;;;24.40;99.90;;;;;;5046176;28;20025;-68
2023/08/11 11:58:40;;;;;;;5.55;3.15;;;24.40;99.90;;;;;;5051694;28;20065;-69
2023/08/11 12:01:17;;;;;;;9.10;3.17;;;24.40;99.90;;;;;;5052901;28;20029;-68
2023/08/11 12:03:47;;;;;;;6.25;2.80;;;24.50;99.90;;;;;;5054465;28;20033;-70
2023/08/11 12:06:14;;;;;;;5.53;2.85;;;24.50;99.90;;;;;;5058529;28;20485;-69
2023/08/11 12:08:41;;;;;;;8.23;3.17;;;24.50;99.90;;;;;;5055821;28;20029;-74
2023/08/11 12:11:11;;;;;;;6.63;2.80;;;24.50;99.90;;;;;;5053457;28;20412;-68
2023/08/11 12:13:39;;;;;;;6.93;2.65;;;24.50;99.90;;;;;;5053328;28;20076;-73
2023/08/11 12:16:07;;;;;;;4.18;2.97;;;24.60;99.90;;;;;;5053645;28;20028;-70
2023/08/11 12:18:33;;;;;;;7.15;3.30;;;24.60;99.90;;;;;;5050748;28;20393;-77
2023/08/11 12:20:59;;;;;;;5.60;2.92;;;24.60;99.90;;;;;;5053450;28;20474;-70
2023/08/11 12:23:27;;;;;;;5.18;2.95;;;24.60;99.90;;;;;;5053121;28;20032;-76
2023/08/11 12:25:53;;;;;;;6.95;3.28;;;24.60;99.90;;;;;;5052933;28;20025;-68
2023/08/11 12:28:19;;;;;;;4.90;2.65;;;24.60;99.90;;;;;;5054010;28;20381;-75
2023/08/11 12:30:44;;;;;;;5.30;2.78;;;24.60;99.90;;;;;;5054829;28;20033;-76
2023/08/11 12:33:10;;;;;;;4.95;2.92;;;24.60;99.90;;;;;;5054312;28;20044;-75
2023/08/11 12:35:36;;;;;;;4.65;2.85;;;24.60;99.90;;;;;;5054839;28;20025;-68
2023/08/11 12:38:03;;;;;;;5.72;3.25;;;24.70;99.90;;;;;;5054047;28;20108;-68
2023/08/11 12:40:30;;;;;;;3.78;2.75;;;24.70;99.90;;;;;;5055589;28;20028;-68
2023/08/11 12:42:56;;;;;;;3.95;3.20;;;24.70;99.90;;;;;;5055119;28;20017;-68
2023/08/11 12:45:21;;;;;;;6.03;3.35;;;24.70;99.90;;;;;;5053525;28;20111;-68